createdAt,value
2022-08-25T00:00:22.366Z,21.08
2022-08-25T00:03:06.079Z,21.05
2022-08-25T00:05:35.527Z,21.02
2022-08-25T00:08:06.657Z,21.00
2022-08-25T00:10:37.837Z,20.97
2022-08-25T00:13:07.112Z,20.94
2022-08-25T00:15:36.893Z,20.91
2022-08-25T00:18:19.704Z,20.89
2022-08-25T00:20:49.501Z,20.88
2022-08-25T00:23:19.212Z,20.87
2022-08-25T00:25:48.108Z,20.88
2022-08-25T00:28:17.265Z,20.91
2022-08-25T00:30:46.170Z,20.94
2022-08-25T00:33:14.896Z,20.97
2022-08-25T00:35:44.391Z,20.99
2022-08-25T00:38:13.649Z,21.02
2022-08-25T00:40:43.155Z,21.03
2022-08-25T00:43:12.707Z,21.03
2022-08-25T00:45:41.290Z,21.04
2022-08-25T00:48:09.743Z,21.04
2022-08-25T00:50:38.357Z,21.03
2022-08-25T00:53:08.703Z,21.04
2022-08-25T00:55:40.155Z,21.04
2022-08-25T00:58:15.067Z,21.05
2022-08-25T01:00:52.440Z,21.04
2022-08-25T01:03:23.907Z,21.04
2022-08-25T01:06:05.207Z,21.03
2022-08-25T01:08:34.352Z,21.02
2022-08-25T01:11:06.626Z,21.01
2022-08-25T01:13:42.061Z,21.00
2022-08-25T01:16:12.189Z,20.99
2022-08-25T01:19:07.956Z,20.97
2022-08-25T01:21:46.779Z,20.95
2022-08-25T01:24:28.982Z,20.93
2022-08-25T01:26:58.263Z,20.90
2022-08-25T01:29:27.585Z,20.90
2022-08-25T01:32:05.656Z,20.88
2022-08-25T01:34:37.547Z,20.86
2022-08-25T01:37:06.651Z,20.84
2022-08-25T01:39:37.182Z,20.82
2022-08-25T01:42:11.719Z,20.81
2022-08-25T01:44:45.373Z,20.79
2022-08-25T01:47:15.253Z,20.77
2022-08-25T01:49:44.220Z,20.75
2022-08-25T01:52:17.479Z,20.74
2022-08-25T01:54:46.202Z,20.73
2022-08-25T01:57:16.220Z,20.72
2022-08-25T01:59:45.626Z,20.71
2022-08-25T02:02:14.364Z,20.70
2022-08-25T02:04:44.507Z,20.70
2022-08-25T02:07:13.735Z,20.69
2022-08-25T02:09:42.165Z,20.68
2022-08-25T02:12:11.419Z,20.67
2022-08-25T02:14:40.105Z,20.67
2022-08-25T02:17:10.637Z,20.66
2022-08-25T02:19:39.119Z,20.65
2022-08-25T02:22:07.805Z,20.65
2022-08-25T02:24:36.388Z,20.65
2022-08-25T02:27:05.204Z,20.64
2022-08-25T02:29:34.438Z,20.65
2022-08-25T02:32:04.115Z,20.64
2022-08-25T02:34:32.573Z,20.63
2022-08-25T02:37:01.384Z,20.61
2022-08-25T02:39:30.153Z,20.59
2022-08-25T02:42:00.126Z,20.58
2022-08-25T02:44:28.601Z,20.56
2022-08-25T02:46:57.112Z,20.52
2022-08-25T02:49:25.618Z,20.50
2022-08-25T02:51:55.332Z,20.48
2022-08-25T02:54:24.323Z,20.45
2022-08-25T02:56:53.011Z,20.44
2022-08-25T02:59:21.493Z,20.42
2022-08-25T03:01:49.975Z,20.40
2022-08-25T03:04:19.133Z,20.39
2022-08-25T03:06:48.087Z,20.38
2022-08-25T03:09:18.257Z,20.36
2022-08-25T03:11:47.804Z,20.35
2022-08-25T03:14:16.893Z,20.33
2022-08-25T03:16:46.490Z,20.30
2022-08-25T03:19:15.113Z,20.28
2022-08-25T03:21:46.436Z,20.26
2022-08-25T03:24:14.777Z,20.25
2022-08-25T03:26:56.329Z,20.23
2022-08-25T03:29:28.352Z,20.23
2022-08-25T03:32:01.555Z,20.22
2022-08-25T03:34:31.687Z,20.23
2022-08-25T03:37:01.191Z,20.25
2022-08-25T03:39:29.676Z,20.26
2022-08-25T03:41:58.361Z,20.27
2022-08-25T03:44:27.048Z,20.30
2022-08-25T03:46:55.693Z,20.33
2022-08-25T03:49:24.731Z,20.36
2022-08-25T03:51:55.013Z,20.40
2022-08-25T03:54:26.041Z,20.44
2022-08-25T03:56:55.431Z,20.49
2022-08-25T03:59:23.848Z,20.55
2022-08-25T04:01:55.370Z,20.61
2022-08-25T04:04:24.698Z,20.68
2022-08-25T04:06:53.430Z,20.74
2022-08-25T04:09:22.521Z,20.82
2022-08-25T04:11:53.145Z,20.90
2022-08-25T04:14:23.953Z,20.98
2022-08-25T04:16:53.289Z,21.06
2022-08-25T04:19:22.568Z,21.14
2022-08-25T04:21:56.521Z,21.24
2022-08-25T04:24:26.116Z,21.34
2022-08-25T04:26:55.111Z,21.43
2022-08-25T04:29:25.054Z,21.53
2022-08-25T04:31:55.189Z,21.64
2022-08-25T04:34:31.169Z,21.75
2022-08-25T04:37:03.133Z,21.87
2022-08-25T04:39:32.679Z,21.99
2022-08-25T04:42:01.703Z,22.10
2022-08-25T04:44:30.879Z,22.24
2022-08-25T04:47:00.148Z,22.38
2022-08-25T04:49:29.098Z,22.52
2022-08-25T04:51:57.859Z,22.67
2022-08-25T04:54:28.454Z,22.81
2022-08-25T04:56:58.286Z,22.97
2022-08-25T04:59:30.621Z,23.13
2022-08-25T05:02:03.557Z,23.29
2022-08-25T05:04:36.906Z,23.45
2022-08-25T05:07:06.056Z,23.62
2022-08-25T05:09:34.691Z,23.79
2022-08-25T05:12:04.269Z,23.96
2022-08-25T05:14:33.455Z,24.12
2022-08-25T05:17:02.649Z,24.27
2022-08-25T05:19:32.052Z,24.43
2022-08-25T05:22:00.843Z,24.59
2022-08-25T05:24:30.144Z,24.74
2022-08-25T05:26:58.836Z,24.90
2022-08-25T05:29:27.724Z,25.06
2022-08-25T05:31:56.274Z,25.23
2022-08-25T05:34:25.541Z,25.39
2022-08-25T05:36:54.923Z,25.56
2022-08-25T05:39:23.395Z,25.73
2022-08-25T05:41:55.397Z,25.91
2022-08-25T05:44:23.843Z,26.05
2022-08-25T05:46:52.841Z,26.19
2022-08-25T05:49:21.626Z,26.33
2022-08-25T05:51:50.212Z,26.46
2022-08-25T05:54:18.694Z,26.61
2022-08-25T05:56:47.483Z,26.78
2022-08-25T05:59:16.128Z,26.93
2022-08-25T06:02:03.599Z,27.05
2022-08-25T06:04:32.685Z,27.17
2022-08-25T06:07:01.284Z,27.28
2022-08-25T06:09:29.912Z,27.38
2022-08-25T06:11:58.450Z,27.50
2022-08-25T06:14:27.856Z,27.60
2022-08-25T06:16:57.430Z,27.70
2022-08-25T06:19:25.947Z,27.78
2022-08-25T06:21:58.834Z,27.85
2022-08-25T06:24:29.468Z,27.93
2022-08-25T06:26:58.359Z,28.00
2022-08-25T06:29:27.561Z,28.01
2022-08-25T06:31:56.170Z,28.01
2022-08-25T06:34:24.626Z,28.16
2022-08-25T06:36:53.528Z,28.39
2022-08-25T06:39:24.216Z,28.53
2022-08-25T06:41:54.973Z,28.80
2022-08-25T06:44:27.883Z,29.11
2022-08-25T06:46:56.839Z,29.31
2022-08-25T06:49:29.321Z,29.50
2022-08-25T06:52:00.798Z,29.62
2022-08-25T06:54:29.895Z,29.56
2022-08-25T06:56:58.583Z,29.64
2022-08-25T06:59:31.999Z,29.82
2022-08-25T07:02:04.377Z,30.01
2022-08-25T07:04:34.374Z,30.21
2022-08-25T07:07:03.732Z,30.37
2022-08-25T07:09:35.255Z,30.51
2022-08-25T07:12:06.376Z,30.59
2022-08-25T07:14:36.556Z,30.63
2022-08-25T07:17:10.518Z,30.75
2022-08-25T07:19:41.757Z,30.89
2022-08-25T07:22:10.239Z,30.96
2022-08-25T07:24:38.581Z,31.04
2022-08-25T07:27:07.364Z,31.08
2022-08-25T07:29:42.236Z,31.18
2022-08-25T07:32:11.444Z,31.29
2022-08-25T07:34:58.459Z,31.37
2022-08-25T07:37:47.873Z,31.47
2022-08-25T07:40:18.920Z,31.66
2022-08-25T07:42:50.448Z,31.85
2022-08-25T07:45:20.904Z,31.89
2022-08-25T07:47:51.716Z,31.87
2022-08-25T07:50:21.473Z,32.00
2022-08-25T07:53:05.392Z,32.18
2022-08-25T07:55:36.873Z,32.37
2022-08-25T07:58:08.499Z,32.48
2022-08-25T08:00:39.735Z,32.54
2022-08-25T08:03:19.722Z,32.57
2022-08-25T08:06:00.943Z,32.66
2022-08-25T08:08:30.141Z,32.73
2022-08-25T08:11:05.006Z,32.76
2022-08-25T08:13:38.055Z,32.88
2022-08-25T08:16:11.686Z,33.02
2022-08-25T08:18:43.861Z,33.18
2022-08-25T08:21:26.657Z,33.33
2022-08-25T08:23:59.196Z,33.40
2022-08-25T08:26:48.172Z,33.43
2022-08-25T08:29:17.806Z,33.51
2022-08-25T08:31:48.449Z,33.57
2022-08-25T08:34:17.642Z,33.68
2022-08-25T08:36:46.019Z,33.88
2022-08-25T08:39:14.402Z,34.05
2022-08-25T08:42:40.350Z,34.22
2022-08-25T08:45:40.571Z,34.33
2022-08-25T08:48:57.797Z,34.42
2022-08-25T08:51:39.577Z,34.50
2022-08-25T08:54:15.345Z,34.53
2022-08-25T08:56:50.805Z,34.65
2022-08-25T08:59:30.049Z,34.79
2022-08-25T09:02:01.258Z,34.91
2022-08-25T09:04:39.879Z,35.06
2022-08-25T09:07:14.581Z,35.22
2022-08-25T09:09:46.164Z,35.30
2022-08-25T09:12:55.472Z,35.34
2022-08-25T09:16:01.385Z,35.48
2022-08-25T09:18:50.845Z,35.63
2022-08-25T09:21:31.405Z,35.72
2022-08-25T09:24:23.340Z,35.73
2022-08-25T09:27:15.886Z,35.81
2022-08-25T09:30:10.890Z,35.86
2022-08-25T09:32:48.954Z,35.91
2022-08-25T09:35:26.376Z,35.94
2022-08-25T09:38:10.301Z,36.08
2022-08-25T09:40:42.932Z,36.17
2022-08-25T09:43:52.312Z,36.20
2022-08-25T09:47:26.582Z,36.23
2022-08-25T09:50:57.530Z,36.29
2022-08-25T09:54:33.935Z,36.38
2022-08-25T09:58:17.755Z,36.55
2022-08-25T10:01:51.893Z,36.74
2022-08-25T10:09:15.279Z,36.74
2022-08-25T10:12:51.167Z,36.84
2022-08-25T10:16:24.476Z,36.95
2022-08-25T10:19:22.415Z,37.03
2022-08-25T10:22:43.331Z,37.11
2022-08-25T10:26:11.443Z,37.23
2022-08-25T10:29:47.652Z,37.29
2022-08-25T10:33:19.001Z,37.38
2022-08-25T10:36:48.519Z,37.36
2022-08-25T10:40:22.707Z,37.38
2022-08-25T10:43:40.726Z,37.37
2022-08-25T10:47:17.315Z,37.43
2022-08-25T10:50:45.793Z,37.48
2022-08-25T10:54:09.384Z,37.56
2022-08-25T10:57:52.722Z,37.60
2022-08-25T11:01:28.969Z,37.70
2022-08-25T11:05:00.727Z,37.89
2022-08-25T11:08:29.137Z,38.03
2022-08-25T11:11:40.711Z,38.11
2022-08-25T11:15:08.946Z,38.06
2022-08-25T11:18:21.635Z,37.90
2022-08-25T11:21:42.136Z,37.97
2022-08-25T15:55:54.076Z,37.14
2022-08-25T15:58:22.914Z,36.76
2022-08-25T16:00:56.340Z,36.41
2022-08-25T16:03:26.051Z,36.08
2022-08-25T16:05:54.916Z,35.74
2022-08-25T16:08:23.910Z,35.42
2022-08-25T16:10:54.032Z,35.13
2022-08-25T16:13:23.329Z,34.88
2022-08-25T16:15:54.182Z,34.60
2022-08-25T16:18:24.235Z,34.33
2022-08-25T16:20:53.289Z,34.05
2022-08-25T16:23:21.975Z,33.79
2022-08-25T16:25:51.772Z,33.57
2022-08-25T16:28:24.547Z,33.35
2022-08-25T16:30:53.631Z,33.10
2022-08-25T16:33:23.075Z,32.89
2022-08-25T16:35:51.834Z,32.68
2022-08-25T16:38:20.575Z,32.47
2022-08-25T16:40:49.138Z,32.28
2022-08-25T16:43:18.134Z,32.10
2022-08-25T16:45:47.086Z,31.91
2022-08-25T16:48:15.714Z,31.72
2022-08-25T16:50:44.924Z,31.50
2022-08-25T16:53:32.953Z,31.30
2022-08-25T16:56:07.510Z,31.08
2022-08-25T16:58:38.119Z,30.88
2022-08-25T17:01:14.305Z,30.68
2022-08-25T17:03:44.298Z,30.49
2022-08-25T17:06:14.391Z,30.32
2022-08-25T17:08:44.125Z,30.16
2022-08-25T17:11:17.118Z,30.00
2022-08-25T17:13:49.744Z,29.86
2022-08-25T17:16:21.425Z,29.72
2022-08-25T17:18:50.037Z,29.56
2022-08-25T17:21:24.508Z,29.43
2022-08-25T17:23:56.259Z,29.29
2022-08-25T17:26:28.016Z,29.16
2022-08-25T17:29:00.176Z,29.04
2022-08-25T17:31:30.709Z,28.91
2022-08-25T17:33:59.594Z,28.80
2022-08-25T17:36:29.283Z,28.68
2022-08-25T17:38:57.827Z,28.59
2022-08-25T17:41:26.761Z,28.49
2022-08-25T17:43:55.242Z,28.40
2022-08-25T17:46:24.544Z,28.31
2022-08-25T17:48:53.956Z,28.23
2022-08-25T17:51:23.240Z,28.14
2022-08-25T17:53:53.118Z,28.05
2022-08-25T17:56:23.698Z,27.98
2022-08-25T17:58:55.389Z,27.89
2022-08-25T18:01:29.009Z,27.79
2022-08-25T18:03:59.566Z,27.70
2022-08-25T18:06:32.170Z,27.60
2022-08-25T18:09:02.188Z,27.52
2022-08-25T18:11:31.662Z,27.43
2022-08-25T18:14:00.759Z,27.33
2022-08-25T18:17:28.953Z,27.26
2022-08-25T18:20:01.568Z,27.15
2022-08-25T18:22:40.260Z,27.08
2022-08-25T18:26:25.528Z,27.01
2022-08-25T18:29:53.956Z,26.92
2022-08-25T18:33:22.338Z,26.83
2022-08-25T18:35:59.382Z,26.74
2022-08-25T18:38:46.951Z,26.68
2022-08-25T18:41:15.744Z,26.61
2022-08-25T18:43:44.737Z,26.56
2022-08-25T18:46:13.469Z,26.52
2022-08-25T18:48:42.419Z,26.47
2022-08-25T18:51:10.902Z,26.42
2022-08-25T18:53:49.757Z,26.37
2022-08-25T18:56:20.153Z,26.32
2022-08-25T18:58:48.864Z,26.24
2022-08-25T19:01:19.275Z,26.17
2022-08-25T19:03:48.161Z,26.11
2022-08-25T19:06:17.818Z,26.05
2022-08-25T19:08:47.753Z,26.01
2022-08-25T19:11:17.912Z,25.96
2022-08-25T19:14:51.009Z,25.93
2022-08-25T19:17:20.318Z,25.89
2022-08-25T19:19:54.856Z,25.88
2022-08-25T19:22:40.810Z,25.87
2022-08-25T19:25:11.635Z,25.86
2022-08-25T19:27:41.483Z,25.84
2022-08-25T19:30:12.573Z,25.81
2022-08-25T19:32:44.252Z,25.78
2022-08-25T19:35:37.854Z,25.74
2022-08-25T19:38:24.591Z,25.70
2022-08-25T19:40:59.603Z,25.64
2022-08-25T19:43:56.459Z,25.59
2022-08-25T19:46:35.675Z,25.51
2022-08-25T19:49:26.900Z,25.45
2022-08-25T19:51:56.918Z,25.38
2022-08-25T19:54:31.647Z,25.31
2022-08-25T19:57:00.286Z,25.23
2022-08-25T19:59:40.457Z,25.15
2022-08-25T20:02:18.694Z,25.05
2022-08-25T20:04:52.567Z,24.95
2022-08-25T20:07:27.763Z,24.84
2022-08-25T20:09:56.813Z,24.72
2022-08-25T20:12:27.280Z,24.61
2022-08-25T20:14:56.479Z,24.49
2022-08-25T20:17:26.362Z,24.38
2022-08-25T20:20:00.243Z,24.25
2022-08-25T20:22:31.873Z,24.13
2022-08-25T20:25:13.592Z,24.03
2022-08-25T20:27:48.034Z,23.93
2022-08-25T20:30:23.411Z,23.86
2022-08-25T20:32:54.596Z,23.79
2022-08-25T20:35:26.707Z,23.74
2022-08-25T20:37:57.939Z,23.68
2022-08-25T20:40:29.148Z,23.65
2022-08-25T20:42:59.345Z,23.62
2022-08-25T20:45:27.773Z,23.56
2022-08-25T20:47:56.724Z,23.51
2022-08-25T20:50:26.254Z,23.47
2022-08-25T20:52:57.064Z,23.43
2022-08-25T20:55:26.520Z,23.40
2022-08-25T20:57:55.426Z,23.35
2022-08-25T21:00:24.917Z,23.30
2022-08-25T21:02:54.463Z,23.26
2022-08-25T21:05:23.164Z,23.21
2022-08-25T21:07:51.854Z,23.17
2022-08-25T21:10:20.948Z,23.15
2022-08-25T21:12:53.540Z,23.12
2022-08-25T21:15:22.414Z,23.08
2022-08-25T21:17:54.440Z,23.04
2022-08-25T21:20:25.190Z,23.02
2022-08-25T21:22:54.933Z,23.00
2022-08-25T21:25:23.417Z,22.96
2022-08-25T21:27:51.945Z,22.95
2022-08-25T21:30:20.994Z,22.92
2022-08-25T21:32:53.504Z,22.88
2022-08-25T21:35:32.100Z,22.85
2022-08-25T21:38:00.498Z,22.79
2022-08-25T21:40:36.959Z,22.75
2022-08-25T21:43:07.429Z,22.71
2022-08-25T21:45:46.138Z,22.66
2022-08-25T21:48:15.839Z,22.60
2022-08-25T21:50:44.288Z,22.55
2022-08-25T21:53:13.698Z,22.50
2022-08-25T21:55:44.611Z,22.46
2022-08-25T21:58:13.436Z,22.42
2022-08-25T22:00:42.108Z,22.38
2022-08-25T22:03:10.864Z,22.35
2022-08-25T22:05:40.603Z,22.32
2022-08-25T22:08:11.867Z,22.28
2022-08-25T22:10:46.691Z,22.22
2022-08-25T22:13:15.580Z,22.18
2022-08-25T22:15:46.521Z,22.14
2022-08-25T22:18:22.095Z,22.10
2022-08-25T22:20:51.428Z,22.07
2022-08-25T22:23:20.661Z,22.05
2022-08-25T22:25:49.564Z,22.04
2022-08-25T22:28:19.763Z,22.02
2022-08-25T22:30:48.540Z,21.99
2022-08-25T22:33:17.261Z,21.96
2022-08-25T22:35:46.447Z,21.94
2022-08-25T22:38:15.766Z,21.91
2022-08-25T22:40:45.685Z,21.86
2022-08-25T22:43:15.188Z,21.81
2022-08-25T22:45:43.910Z,21.77
2022-08-25T22:48:12.564Z,21.73
2022-08-25T22:50:41.045Z,21.71
2022-08-25T22:53:10.141Z,21.70
2022-08-25T22:55:43.815Z,21.68
2022-08-25T22:58:12.520Z,21.68
2022-08-25T23:00:42.067Z,21.70
2022-08-25T23:03:11.666Z,21.72
2022-08-25T23:05:40.645Z,21.74
2022-08-25T23:08:09.230Z,21.75
2022-08-25T23:10:38.083Z,21.76
2022-08-25T23:13:07.421Z,21.77
2022-08-25T23:15:36.109Z,21.78
2022-08-25T23:18:05.524Z,21.78
2022-08-25T23:20:52.941Z,21.80
2022-08-25T23:23:21.486Z,21.81
2022-08-25T23:25:51.647Z,21.82
2022-08-25T23:28:21.119Z,21.84
2022-08-25T23:30:57.040Z,21.83
2022-08-25T23:33:28.548Z,21.82
2022-08-25T23:36:07.727Z,21.80
2022-08-25T23:38:36.997Z,21.78
2022-08-25T23:41:09.612Z,21.75
2022-08-25T23:43:39.047Z,21.73
2022-08-25T23:46:07.773Z,21.72
2022-08-25T23:48:36.664Z,21.68
2022-08-25T23:51:05.624Z,21.65
2022-08-25T23:53:35.744Z,21.61
2022-08-25T23:56:06.744Z,21.57
2022-08-25T23:58:36.328Z,21.52
